createdAt,value
2023-05-18T00:00:18.177Z,1.50
2023-05-18T00:05:20.505Z,2.20
2023-05-18T00:10:22.955Z,1.67
2023-05-18T00:15:25.456Z,1.83
2023-05-18T00:20:29.536Z,2.10
2023-05-18T00:25:32.208Z,2.20
2023-05-18T00:30:34.575Z,1.80
2023-05-18T00:35:36.904Z,1.97
2023-05-18T00:40:39.888Z,2.67
2023-05-18T00:45:42.272Z,2.70
2023-05-18T00:50:44.900Z,2.07
2023-05-18T00:55:48.546Z,2.07
2023-05-18T01:00:51.825Z,2.00
2023-05-18T01:05:57.984Z,1.80
2023-05-18T01:11:34.246Z,1.93
2023-05-18T01:16:51.209Z,2.13
2023-05-18T01:21:58.356Z,1.77
2023-05-18T01:27:01.209Z,1.80
2023-05-18T01:32:07.543Z,1.87
2023-05-18T01:37:09.883Z,1.90
2023-05-18T01:42:15.922Z,2.20
2023-05-18T01:47:19.020Z,2.00
2023-05-18T01:52:53.037Z,2.03
2023-05-18T01:57:58.541Z,2.30
2023-05-18T02:03:03.578Z,1.80
2023-05-18T02:08:06.684Z,2.37
2023-05-18T02:13:09.104Z,2.90
2023-05-18T02:18:11.600Z,2.63
2023-05-18T02:23:14.013Z,2.67
2023-05-18T02:28:16.371Z,2.50
2023-05-18T02:33:26.679Z,2.43
2023-05-18T02:38:29.201Z,2.67
2023-05-18T02:43:32.234Z,1.63
2023-05-18T02:48:34.710Z,2.17
2023-05-18T02:53:37.547Z,2.50
2023-05-18T02:58:45.436Z,2.27
2023-05-18T03:04:03.006Z,2.07
2023-05-18T03:09:07.723Z,2.50
2023-05-18T03:14:15.512Z,2.60
2023-05-18T03:19:19.411Z,2.40
2023-05-18T03:24:22.293Z,2.77
2023-05-18T03:29:25.907Z,2.40
2023-05-18T03:34:28.429Z,2.80
2023-05-18T03:39:31.080Z,2.70
2023-05-18T03:44:33.641Z,2.63
2023-05-18T03:49:36.887Z,2.53
2023-05-18T03:54:42.736Z,2.70
2023-05-18T03:59:46.116Z,2.70
2023-05-18T04:04:48.565Z,2.10
2023-05-18T04:09:52.187Z,2.80
2023-05-18T04:14:55.622Z,2.77
2023-05-18T04:19:58.075Z,2.50
2023-05-18T04:25:01.835Z,2.50
2023-05-18T04:30:04.799Z,2.50
2023-05-18T04:35:08.076Z,2.33
2023-05-18T04:40:13.881Z,1.97
2023-05-18T04:45:20.623Z,2.27
2023-05-18T04:50:24.404Z,1.77
2023-05-18T04:55:29.215Z,1.37
2023-05-18T05:00:50.427Z,1.63
2023-05-18T05:05:52.874Z,1.57
2023-05-18T05:10:55.445Z,1.30
2023-05-18T05:15:57.761Z,1.60
2023-05-18T05:21:01.205Z,1.60
2023-05-18T05:26:03.988Z,1.30
2023-05-18T05:31:07.410Z,1.27
2023-05-18T05:36:10.517Z,1.97
2023-05-18T05:41:23.229Z,1.10
2023-05-18T05:46:26.019Z,1.40
2023-05-18T05:51:29.246Z,1.43
2023-05-18T05:56:32.078Z,1.13
2023-05-18T06:01:35.049Z,1.00
2023-05-18T06:06:39.333Z,1.33
2023-05-18T06:11:51.968Z,1.70
2023-05-18T06:17:00.995Z,1.10
2023-05-18T06:22:04.162Z,1.30
2023-05-18T06:27:21.374Z,1.50
2023-05-18T06:32:38.509Z,1.20
2023-05-18T06:37:46.114Z,1.73
2023-05-18T06:42:49.606Z,1.40
2023-05-18T06:48:01.622Z,1.33
2023-05-18T06:53:05.870Z,1.47
2023-05-18T06:58:09.007Z,1.50
2023-05-18T07:03:12.744Z,1.67
2023-05-18T07:08:15.349Z,2.43
2023-05-18T07:13:19.020Z,2.83
2023-05-18T07:18:21.741Z,2.00
2023-05-18T07:23:24.249Z,1.03
2023-05-18T07:28:29.790Z,1.30
2023-05-18T07:33:32.953Z,2.00
2023-05-18T07:38:35.397Z,1.60
2023-05-18T07:43:38.025Z,1.93
2023-05-18T07:48:41.163Z,1.70
2023-05-18T07:53:45.976Z,1.93
2023-05-18T07:58:48.549Z,2.10
2023-05-18T08:03:51.276Z,1.73
2023-05-18T08:08:53.866Z,2.33
2023-05-18T08:13:56.582Z,2.27
2023-05-18T08:18:59.048Z,3.50
2023-05-18T08:24:04.463Z,2.53
2023-05-18T08:29:10.285Z,2.60
2023-05-18T08:34:12.864Z,2.10
2023-05-18T08:39:15.649Z,2.77
2023-05-18T08:44:23.022Z,2.30
2023-05-18T08:49:27.360Z,1.47
2023-05-18T08:54:31.560Z,1.70
2023-05-18T08:59:41.550Z,1.90
2023-05-18T09:04:44.960Z,2.37
2023-05-18T09:09:48.481Z,2.27
2023-05-18T09:14:51.557Z,1.23
2023-05-18T09:19:54.172Z,2.33
2023-05-18T09:24:56.730Z,1.20
2023-05-18T09:29:59.163Z,2.20
2023-05-18T09:35:06.543Z,1.80
2023-05-18T09:40:11.816Z,3.03
2023-05-18T09:45:24.253Z,2.20
2023-05-18T09:50:27.421Z,1.80
2023-05-18T09:55:29.969Z,2.70
2023-05-18T10:00:33.371Z,2.03
2023-05-18T10:05:36.668Z,1.73
2023-05-18T10:10:41.076Z,2.73
2023-05-18T10:15:51.984Z,2.13
2023-05-18T10:20:58.492Z,1.53
2023-05-18T10:26:07.121Z,2.03
2023-05-18T10:31:09.792Z,2.23
2023-05-18T10:36:12.782Z,2.87
2023-05-18T10:41:17.853Z,1.57
2023-05-18T10:46:26.544Z,3.73
2023-05-18T10:51:47.425Z,2.13
2023-05-18T10:56:52.756Z,4.67
2023-05-18T11:01:57.824Z,2.10
2023-05-18T11:07:01.503Z,1.43
2023-05-18T11:12:11.147Z,1.73
2023-05-18T11:17:18.896Z,0.87
2023-05-18T11:22:21.564Z,1.50
2023-05-18T11:27:24.773Z,4.77
2023-05-18T11:32:31.403Z,5.53
2023-05-18T11:37:39.792Z,0.93
2023-05-18T11:42:42.150Z,2.10
2023-05-18T11:47:44.787Z,3.03
2023-05-18T11:52:51.413Z,1.33
2023-05-18T11:57:54.269Z,0.70
2023-05-18T12:02:57.778Z,0.67
2023-05-18T12:08:00.871Z,0.87
2023-05-18T12:13:04.185Z,0.70
2023-05-18T12:18:06.627Z,0.50
2023-05-18T12:23:09.426Z,0.80
2023-05-18T12:28:14.195Z,1.07
2023-05-18T12:33:16.829Z,1.30
2023-05-18T12:38:19.785Z,1.27
2023-05-18T12:43:25.693Z,1.50
2023-05-18T12:48:28.054Z,0.90
2023-05-18T12:53:43.247Z,1.40
2023-05-18T12:58:59.835Z,1.70
2023-05-18T13:04:02.491Z,1.30
2023-05-18T13:09:10.498Z,1.47
2023-05-18T13:14:14.594Z,1.00
2023-05-18T13:19:20.876Z,1.70
2023-05-18T13:24:23.403Z,1.45
2023-05-18T13:29:25.787Z,1.03
2023-05-18T13:34:28.403Z,1.33
2023-05-18T13:39:30.764Z,1.40
2023-05-18T13:44:33.170Z,1.20
2023-05-18T13:49:35.809Z,1.65
2023-05-18T13:54:38.445Z,1.27
2023-05-18T13:59:40.912Z,1.52
2023-05-18T14:04:43.306Z,1.30
2023-05-18T14:09:45.987Z,1.48
2023-05-18T14:14:48.346Z,1.20
2023-05-18T14:19:50.750Z,1.27
2023-05-18T14:24:53.892Z,1.30
2023-05-18T14:29:56.656Z,1.40
2023-05-18T14:34:58.995Z,1.63
2023-05-18T14:40:01.390Z,1.25
2023-05-18T14:45:04.073Z,1.20
2023-05-18T14:50:07.019Z,1.30
2023-05-18T14:55:09.832Z,1.40
2023-05-18T15:00:12.845Z,1.30
2023-05-18T15:05:15.622Z,1.10
2023-05-18T15:10:18.002Z,1.20
2023-05-18T15:15:20.501Z,1.00
2023-05-18T15:20:24.404Z,1.27
2023-05-18T15:25:27.198Z,1.00
2023-05-18T15:30:30.230Z,1.50
2023-05-18T15:35:34.828Z,1.48
2023-05-18T15:40:37.224Z,1.00
2023-05-18T15:45:39.636Z,1.13
2023-05-18T15:50:42.111Z,1.33
2023-05-18T15:55:52.520Z,1.35
2023-05-18T16:00:55.375Z,1.20
2023-05-18T16:05:58.335Z,1.20
2023-05-18T16:11:02.271Z,1.43
2023-05-18T16:16:04.920Z,1.38
2023-05-18T16:21:07.349Z,1.30
2023-05-18T16:26:10.433Z,1.50
2023-05-18T16:31:12.886Z,1.13
2023-05-18T16:36:15.437Z,1.63
2023-05-18T16:41:18.112Z,1.20
2023-05-18T16:46:20.499Z,1.10
2023-05-18T16:51:23.264Z,1.30
2023-05-18T16:56:26.999Z,1.40
2023-05-18T17:01:30.840Z,1.00
2023-05-18T17:06:33.517Z,1.10
2023-05-18T17:11:36.121Z,1.77
2023-05-18T17:16:40.973Z,1.53
2023-05-18T17:21:43.400Z,1.47
2023-05-18T17:26:45.757Z,1.03
2023-05-18T17:31:48.113Z,1.20
2023-05-18T17:36:50.482Z,1.80
2023-05-18T17:41:54.307Z,1.30
2023-05-18T17:46:57.545Z,1.70
2023-05-18T17:52:00.044Z,1.47
2023-05-18T17:57:02.436Z,2.33
2023-05-18T18:02:05.334Z,1.00
2023-05-18T18:07:08.244Z,1.60
2023-05-18T18:12:10.631Z,1.30
2023-05-18T18:17:13.152Z,1.90
2023-05-18T18:22:15.692Z,1.90
2023-05-18T18:27:19.917Z,1.70
2023-05-18T18:32:22.374Z,2.10
2023-05-18T18:37:24.775Z,2.00
2023-05-18T18:42:27.133Z,1.83
2023-05-18T18:47:29.561Z,1.63
2023-05-18T18:52:32.091Z,1.30
2023-05-18T18:57:34.550Z,1.30
2023-05-18T19:02:40.996Z,4.30
2023-05-18T19:07:44.007Z,1.90
2023-05-18T19:12:46.444Z,1.70
2023-05-18T19:17:53.545Z,1.33
2023-05-18T19:22:56.171Z,2.43
2023-05-18T19:27:59.006Z,1.80
2023-05-18T19:33:01.504Z,2.60
2023-05-18T19:38:03.982Z,4.20
2023-05-18T19:43:06.490Z,3.13
2023-05-18T19:48:09.000Z,4.30
2023-05-18T19:53:11.504Z,3.73
2023-05-18T19:58:13.941Z,4.20
2023-05-18T20:03:16.841Z,5.80
2023-05-18T20:08:19.660Z,6.43
2023-05-18T20:13:23.014Z,5.60
2023-05-18T20:18:26.196Z,4.73
2023-05-18T20:23:28.641Z,7.17
2023-05-18T20:28:31.831Z,6.67
2023-05-18T20:33:36.997Z,13.07
2023-05-18T20:38:39.576Z,8.80
2023-05-18T20:43:41.928Z,6.37
2023-05-18T20:48:44.786Z,6.20
2023-05-18T20:53:47.261Z,4.93
2023-05-18T20:58:50.325Z,3.87
2023-05-18T21:03:52.910Z,3.37
2023-05-18T21:08:55.680Z,2.63
2023-05-18T21:13:58.135Z,2.60
2023-05-18T21:19:00.575Z,2.40
2023-05-18T21:24:03.104Z,2.60
2023-05-18T21:29:06.232Z,2.07
2023-05-18T21:34:08.772Z,1.80
2023-05-18T21:39:11.191Z,1.60
2023-05-18T21:44:13.608Z,1.40
2023-05-18T21:49:15.904Z,1.60
2023-05-18T21:54:18.251Z,1.20
2023-05-18T21:59:20.591Z,0.90
2023-05-18T22:04:23.206Z,0.80
2023-05-18T22:09:25.812Z,1.13
2023-05-18T22:14:28.197Z,0.90
2023-05-18T22:19:30.662Z,0.90
2023-05-18T22:24:33.032Z,0.70
2023-05-18T22:29:35.741Z,1.20
2023-05-18T22:34:38.812Z,1.10
2023-05-18T22:39:42.548Z,0.90
2023-05-18T22:44:45.036Z,1.00
2023-05-18T22:49:49.218Z,0.97
2023-05-18T22:54:51.658Z,0.87
2023-05-18T22:59:54.066Z,1.00
2023-05-18T23:04:56.488Z,0.63
2023-05-18T23:09:59.459Z,0.90
2023-05-18T23:15:03.853Z,0.93
2023-05-18T23:20:07.514Z,1.07
2023-05-18T23:25:11.098Z,0.70
2023-05-18T23:30:13.617Z,0.90
2023-05-18T23:35:16.645Z,0.90
2023-05-18T23:40:19.672Z,0.80
2023-05-18T23:45:23.523Z,0.90
2023-05-18T23:50:26.444Z,1.17
2023-05-18T23:55:30.299Z,1.00
